^^
Franklin Riverside ( IFRANKLI3 Nearby PWS ) Historical Data
 
Daily Summary for August 16, 2018 Units:  Metric    English   Both
« Previous Day
Next Day »
Daily Weekly Monthly Yearly Custom
  Current: High: Low: Average:
Temperature: 6.1 °C 6.7 °C 5.6 °C 6.1 °C
Dew Point: 5.1 °C 6.0 °C 3.7 °C 5.5 °C
Humidity: 93% 98% 85% 95%
Wind Speed: 0.0km/h 4.0km/h 0.0km/h 0.3km/h
Wind Gust: 0.0km/h 4.0km/h - -
WindCalm - - WSW
Pressure: 998.9 hPa 998.9 hPa 994.8 hPa -
Precipitation: 6.3 mm      
Historical Graphs
 
 
Tabular Data for August 16, 2018
Time Temperature Dew Point Pressure Wind Wind Speed Wind Gust Humidity Rainfall Rate (Hourly) solar
00:04 6.5 °C 5.8 °C 994.8 hPa Calm     95% 0.0 mm 0.00 W/m2
00:09 6.5 °C 5.8 °C 994.8 hPa Calm     95% 0.0 mm 0.00 W/m2
00:14 6.5 °C 5.8 °C 994.8 hPa Calm     95% 0.0 mm 0.00 W/m2
00:19 6.4 °C 5.8 °C 995.1 hPa Calm     96% 0.0 mm 0.00 W/m2
00:24 6.4 °C 5.8 °C 995.1 hPa Calm     96% 1.8 mm 0.00 W/m2
00:29 6.3 °C 5.7 °C 995.5 hPa Calm     96% 1.8 mm 0.00 W/m2
00:34 6.3 °C 5.7 °C 995.1 hPa Calm     96% 0.0 mm 0.00 W/m2
00:39 6.2 °C 5.6 °C 995.5 hPa Calm     96% 0.0 mm 0.00 W/m2
00:44 6.1 °C 5.7 °C 995.5 hPa Calm     97% 0.0 mm 0.00 W/m2
00:49 6.1 °C 5.7 °C 995.5 hPa Calm     97% 0.0 mm 0.00 W/m2
00:54 6.1 °C 5.7 °C 995.5 hPa Calm     97% 0.0 mm 0.00 W/m2
00:59 6.0 °C 5.6 °C 995.5 hPa Calm     97% 1.8 mm 0.00 W/m2
01:04 6.0 °C 5.7 °C 995.5 hPa Calm     98% 5.3 mm 0.00 W/m2
01:09 6.1 °C 5.7 °C 995.8 hPa Calm     97% 5.3 mm 0.00 W/m2
01:14 6.1 °C 5.7 °C 995.8 hPa Calm     97% 1.8 mm 0.00 W/m2
01:19 6.1 °C 5.7 °C 995.8 hPa Calm     97% 0.0 mm 0.00 W/m2
01:24 6.2 °C 5.8 °C 995.8 hPa Calm     97% 0.0 mm 0.00 W/m2
01:29 6.2 °C 5.8 °C 996.2 hPa Calm     97% 0.0 mm 0.00 W/m2
01:34 6.3 °C 5.4 °C 996.2 hPa Calm     94% 1.8 mm 0.00 W/m2
01:39 6.4 °C 5.5 °C 996.2 hPa Calm     94% 1.8 mm 0.00 W/m2
01:44 6.4 °C 5.5 °C 996.2 hPa Calm     94% 0.0 mm 0.00 W/m2
01:49 6.5 °C 5.6 °C 996.2 hPa Calm     94% 0.0 mm 0.00 W/m2
01:54 6.6 °C 5.9 °C 996.2 hPa Calm     95% 0.0 mm 0.00 W/m2
01:59 6.6 °C 6.0 °C 996.5 hPa Calm     96% 0.0 mm 0.00 W/m2
02:04 6.5 °C 5.9 °C 996.5 hPa Calm     96% 0.0 mm 0.00 W/m2
02:09 6.5 °C 5.9 °C 996.8 hPa Calm     96% 0.0 mm 0.00 W/m2
02:14 6.4 °C 5.8 °C 996.5 hPa Calm     96% 1.8 mm 0.00 W/m2
02:19 6.3 °C 5.9 °C 996.8 hPa Calm     97% 1.8 mm 0.00 W/m2
02:24 6.3 °C 5.9 °C 996.8 hPa Calm     97% 0.0 mm 0.00 W/m2
02:29 6.3 °C 5.9 °C 996.8 hPa Calm     97% 0.0 mm 0.00 W/m2
02:34 6.3 °C 5.9 °C 996.8 hPa Calm     97% 0.0 mm 0.00 W/m2
02:39 6.3 °C 5.9 °C 996.5 hPa Calm     97% 0.0 mm 0.00 W/m2
02:44 6.3 °C 5.9 °C 996.5 hPa Calm     97% 0.0 mm 0.00 W/m2
02:49 6.3 °C 5.9 °C 996.8 hPa Calm     97% 0.0 mm 0.00 W/m2
02:54 6.2 °C 5.8 °C 996.5 hPa Calm     97% 0.0 mm 0.00 W/m2
02:59 6.2 °C 5.8 °C 996.5 hPa Calm     97% 0.0 mm 0.00 W/m2
03:04 6.1 °C 5.7 °C 996.8 hPa Calm     97% 0.0 mm 0.00 W/m2
03:09 6.0 °C 5.6 °C 996.8 hPa Calm     97% 0.0 mm 0.00 W/m2
03:14 5.9 °C 5.6 °C 996.8 hPa Calm     98% 0.0 mm 0.00 W/m2
03:19 5.8 °C 5.5 °C 996.5 hPa West 1.4 km/h 4.0 km/h 98% 0.0 mm 0.00 W/m2
03:24 5.8 °C 5.4 °C 996.5 hPa West 1.8 km/h 4.0 km/h 97% 0.0 mm 0.00 W/m2
03:29 5.9 °C 5.2 °C 996.8 hPa Calm     95% 0.0 mm 0.00 W/m2
03:34 6.0 °C 5.1 °C 996.8 hPa Calm     94% 0.0 mm 0.00 W/m2
03:39 6.1 °C 5.4 °C 996.8 hPa South 0.6 km/h 4.0 km/h 95% 1.8 mm 0.00 W/m2
03:44 6.3 °C 4.8 °C 996.8 hPa SW 1.8 km/h 4.0 km/h 90% 1.8 mm 0.00 W/m2
03:49 6.5 °C 4.5 °C 996.8 hPa East 0.6 km/h 4.0 km/h 87% 0.0 mm 0.00 W/m2
03:54 6.6 °C 4.6 °C 996.8 hPa NE 0.3 km/h 4.0 km/h 87% 0.0 mm 0.00 W/m2
03:59 6.7 °C 5.2 °C 996.8 hPa Calm     90% 0.0 mm 0.00 W/m2
04:04 6.7 °C 5.7 °C 996.8 hPa Calm     93% 0.0 mm 0.00 W/m2
04:09 6.6 °C 5.9 °C 996.8 hPa Calm     95% 0.0 mm 0.00 W/m2
04:10 6.6 °C 5.9 °C 997.2 hPa Calm     95% 0.0 mm 0.00 W/m2
04:12 6.6 °C 6.0 °C 996.8 hPa Calm     96% 0.0 mm 0.00 W/m2
04:20 6.4 °C 5.8 °C 997.2 hPa Calm     96% 0.0 mm 0.00 W/m2
04:28 6.1 °C 5.7 °C 997.2 hPa Calm     97% 1.8 mm 0.00 W/m2
04:34 6.0 °C 5.6 °C 996.8 hPa Calm     97% 0.0 mm 0.00 W/m2
04:39 5.9 °C 5.5 °C 997.2 hPa Calm     97% 0.0 mm 0.00 W/m2
04:44 5.9 °C 5.5 °C 996.8 hPa Calm     97% 0.0 mm 0.00 W/m2
04:49 5.8 °C 5.5 °C 997.2 hPa Calm     98% 0.0 mm 0.00 W/m2
04:54 5.7 °C 5.3 °C 996.8 hPa NNW 0.3 km/h 4.0 km/h 97% 0.0 mm 0.00 W/m2
04:59 5.7 °C 5.4 °C 996.8 hPa NNW 0.3 km/h 4.0 km/h 98% 0.0 mm 0.00 W/m2
05:04 5.6 °C 5.2 °C 997.5 hPa WNW 1.4 km/h 4.0 km/h 97% 0.0 mm 0.00 W/m2
05:09 5.6 °C 5.2 °C 997.2 hPa Calm     97% 0.0 mm 0.00 W/m2
05:14 5.6 °C 5.2 °C 997.5 hPa Calm     97% 0.0 mm 0.00 W/m2
05:19 5.6 °C 5.2 °C 997.9 hPa Calm     97% 1.8 mm 0.00 W/m2
05:24 5.6 °C 5.2 °C 997.9 hPa Calm     97% 5.3 mm 0.00 W/m2
05:29 5.7 °C 5.4 °C 997.9 hPa Calm     98% 5.3 mm 0.00 W/m2
05:34 5.8 °C 5.5 °C 998.2 hPa Calm     98% 5.3 mm 0.00 W/m2
05:39 5.8 °C 5.5 °C 998.2 hPa Calm     98% 5.3 mm 0.00 W/m2
05:44 5.8 °C 5.5 °C 997.9 hPa WNW 0.6 km/h 4.0 km/h 98% 1.8 mm 0.00 W/m2
05:49 5.8 °C 5.5 °C 997.9 hPa NW 1.4 km/h 4.0 km/h 98% 0.0 mm 0.00 W/m2
05:54 5.8 °C 5.5 °C 998.2 hPa Calm     98% 1.8 mm 0.00 W/m2
05:59 5.8 °C 5.4 °C 997.9 hPa NW 4.0 km/h 4.0 km/h 97% 3.6 mm 0.00 W/m2
06:04 5.8 °C 5.4 °C 998.2 hPa WNW 2.9 km/h 4.0 km/h 97% 1.8 mm 0.00 W/m2
06:09 5.8 °C 5.1 °C 998.2 hPa Calm     95% 1.8 mm 0.00 W/m2
06:14 5.8 °C 4.8 °C 998.2 hPa Calm     93% 1.8 mm 0.00 W/m2
06:19 5.9 °C 4.6 °C 998.2 hPa NNW 0.6 km/h 4.0 km/h 91% 0.0 mm 0.00 W/m2
06:24 5.9 °C 4.6 °C 998.2 hPa Calm     91% 0.0 mm 0.00 W/m2
06:29 5.9 °C 4.6 °C 998.5 hPa ESE 4.0 km/h 4.0 km/h 91% 0.0 mm 0.00 W/m2
06:34 5.9 °C 4.1 °C 998.5 hPa Calm     88% 1.8 mm 0.00 W/m2
06:39 6.0 °C 3.7 °C 998.9 hPa SSW 0.6 km/h 4.0 km/h 85% 1.8 mm 0.00 W/m2
06:44 6.1 °C 4.3 °C 998.5 hPa Calm     88% 0.0 mm 0.00 W/m2
06:49 6.1 °C 4.7 °C 998.5 hPa Calm     91% 0.0 mm 0.00 W/m2
06:54 6.1 °C 5.1 °C 998.9 hPa Calm     93% 1.8 mm 0.00 W/m2
Franklin Riverside, Huon Valley, TAS
Compliments of Weather Underground - 1.75 mb